createdAt,value
2018-03-08T00:00:50.629Z,96635.64
2018-03-08T00:03:18.224Z,96643.33
2018-03-08T00:05:46.000Z,96652.45
2018-03-08T00:08:13.592Z,96652.15
2018-03-08T00:10:41.232Z,96656.16
2018-03-08T00:13:08.831Z,96656.22
2018-03-08T00:15:36.424Z,96658.27
2018-03-08T00:18:04.029Z,96660.16
2018-03-08T00:20:31.633Z,96667.75
2018-03-08T00:22:59.532Z,96664.00
2018-03-08T00:25:27.124Z,96667.17
2018-03-08T00:27:54.720Z,96667.12
2018-03-08T00:30:22.344Z,96662.61
2018-03-08T00:32:49.947Z,96666.62
2018-03-08T00:35:17.575Z,96672.53
2018-03-08T00:37:45.226Z,96673.25
2018-03-08T00:40:13.071Z,96673.65
2018-03-08T00:42:40.652Z,96677.64
2018-03-08T00:45:08.243Z,96681.38
2018-03-08T00:47:35.853Z,96682.77
2018-03-08T00:50:03.453Z,96683.56
2018-03-08T00:52:31.057Z,96682.62
2018-03-08T00:54:58.644Z,96686.50
2018-03-08T00:57:26.603Z,96687.24
2018-03-08T00:59:54.197Z,96692.09
2018-03-08T01:02:21.776Z,96694.67
2018-03-08T01:04:49.393Z,96704.64
2018-03-08T01:07:17.058Z,96698.69
2018-03-08T01:09:44.672Z,96698.36
2018-03-08T01:12:12.254Z,96703.80
2018-03-08T01:14:40.235Z,96701.77
2018-03-08T01:17:07.820Z,96696.08
2018-03-08T01:19:35.411Z,96692.70
2018-03-08T01:22:03.032Z,96699.39
2018-03-08T01:24:30.612Z,96701.19
2018-03-08T01:26:58.216Z,96697.62
2018-03-08T01:29:25.800Z,96704.50
2018-03-08T01:31:53.711Z,96702.83
2018-03-08T01:34:21.296Z,96704.80
2018-03-08T01:36:48.879Z,96700.24
2018-03-08T01:39:16.480Z,96698.42
2018-03-08T01:41:44.108Z,96699.36
2018-03-08T01:44:11.724Z,96699.74
2018-03-08T01:46:39.320Z,96697.67
2018-03-08T01:49:06.951Z,96704.34
2018-03-08T01:51:34.539Z,96709.36
2018-03-08T01:54:02.121Z,96717.28
2018-03-08T01:56:29.730Z,96712.81
2018-03-08T01:58:57.329Z,96720.34
2018-03-08T02:01:24.948Z,96713.77
2018-03-08T02:03:52.535Z,96716.38
2018-03-08T02:06:20.639Z,96715.98
2018-03-08T02:08:48.232Z,96716.13
2018-03-08T02:11:15.820Z,96719.20
2018-03-08T02:13:43.427Z,96727.77
2018-03-08T02:16:11.023Z,96726.53
2018-03-08T02:18:38.632Z,96741.75
2018-03-08T02:21:06.228Z,96739.92
2018-03-08T02:23:33.864Z,96741.36
2018-03-08T02:26:01.462Z,96739.42
2018-03-08T02:28:29.078Z,96740.34
2018-03-08T02:30:56.694Z,96740.70
2018-03-08T02:33:24.299Z,96744.77
2018-03-08T02:35:51.913Z,96752.50
2018-03-08T02:38:19.493Z,96749.02
2018-03-08T02:40:47.500Z,96753.64
2018-03-08T02:43:15.108Z,96749.28
2018-03-08T02:45:42.703Z,96757.98
2018-03-08T02:48:10.311Z,96759.48
2018-03-08T02:50:37.897Z,96760.54
2018-03-08T02:53:05.518Z,96767.66
2018-03-08T02:55:33.178Z,96768.91
2018-03-08T02:58:00.798Z,96776.17
2018-03-08T03:00:28.394Z,96779.03
2018-03-08T03:02:55.988Z,96777.13
2018-03-08T03:05:23.608Z,96782.20
2018-03-08T03:07:51.195Z,96780.99
2018-03-08T03:10:18.808Z,96782.00
2018-03-08T03:12:46.399Z,96777.01
2018-03-08T03:15:14.155Z,96777.30
2018-03-08T03:17:41.744Z,96777.84
2018-03-08T03:20:09.338Z,96775.36
2018-03-08T03:22:36.948Z,96782.59
2018-03-08T03:25:04.549Z,96781.23
2018-03-08T03:27:32.168Z,96787.01
2018-03-08T03:29:59.765Z,96788.25
2018-03-08T03:32:27.582Z,96783.22
2018-03-08T03:34:55.168Z,96786.73
2018-03-08T03:37:22.759Z,96790.72
2018-03-08T03:39:50.372Z,96790.53
2018-03-08T03:42:17.964Z,96788.74
2018-03-08T03:44:45.571Z,96798.79
2018-03-08T03:47:13.156Z,96793.64
2018-03-08T03:49:41.024Z,96796.81
2018-03-08T03:52:08.616Z,96794.28
2018-03-08T03:54:36.207Z,96799.95
2018-03-08T03:57:03.810Z,96802.04
2018-03-08T03:59:31.400Z,96802.73
2018-03-08T04:01:59.008Z,96805.03
2018-03-08T04:04:26.596Z,96800.75
2018-03-08T04:06:54.554Z,96800.89
2018-03-08T04:09:22.151Z,96805.16
2018-03-08T04:11:49.754Z,96811.48
2018-03-08T04:14:17.368Z,96812.48
2018-03-08T04:16:44.963Z,96815.70
2018-03-08T04:19:12.661Z,96815.31
2018-03-08T04:21:40.272Z,96824.09
2018-03-08T04:24:08.085Z,96818.91
2018-03-08T04:26:35.669Z,96826.33
2018-03-08T04:29:03.261Z,96830.63
2018-03-08T04:31:30.873Z,96834.16
2018-03-08T04:33:58.481Z,96842.96
2018-03-08T04:36:26.086Z,96841.27
2018-03-08T04:38:53.690Z,96845.48
2018-03-08T04:41:21.328Z,96847.27
2018-03-08T04:43:48.912Z,96845.52
2018-03-08T04:46:16.493Z,96850.10
2018-03-08T04:48:44.091Z,96852.81
2018-03-08T04:51:11.685Z,96846.95
2018-03-08T04:53:39.411Z,96851.39
2018-03-08T04:56:07.011Z,96856.20
2018-03-08T04:58:34.610Z,96853.44
2018-03-08T05:01:02.225Z,96854.04
2018-03-08T05:03:29.811Z,96856.10
2018-03-08T05:05:57.454Z,96857.00
2018-03-08T05:08:25.041Z,96861.77
2018-03-08T05:10:52.664Z,96858.06
2018-03-08T05:13:20.249Z,96863.09
2018-03-08T05:15:47.868Z,96863.71
2018-03-08T05:18:15.600Z,96869.19
2018-03-08T05:20:43.263Z,96871.07
2018-03-08T05:23:10.868Z,96873.55
2018-03-08T05:25:38.520Z,96871.47
2018-03-08T05:28:06.191Z,96877.30
2018-03-08T05:30:33.872Z,96879.08
2018-03-08T05:33:01.610Z,96894.17
2018-03-08T05:35:29.205Z,96896.14
2018-03-08T05:37:57.024Z,96900.88
2018-03-08T05:40:24.663Z,96899.98
2018-03-08T05:42:52.266Z,96907.33
2018-03-08T05:45:19.873Z,96915.23
2018-03-08T05:47:47.460Z,96916.03
2018-03-08T05:50:15.119Z,96921.22
2018-03-08T05:52:42.725Z,96923.42
2018-03-08T05:55:10.393Z,96925.37
2018-03-08T05:57:38.092Z,96928.22
2018-03-08T06:00:05.792Z,96937.52
2018-03-08T06:02:33.413Z,96937.59
2018-03-08T06:05:01.088Z,96943.64
2018-03-08T06:07:28.723Z,96940.83
2018-03-08T06:09:56.393Z,96948.12
2018-03-08T06:12:24.088Z,96948.98
2018-03-08T06:14:51.722Z,96956.23
2018-03-08T06:17:19.397Z,96956.03
2018-03-08T06:19:47.097Z,96963.83
2018-03-08T06:22:14.701Z,96969.74
2018-03-08T06:24:42.320Z,96962.54
2018-03-08T06:27:10.003Z,96963.83
2018-03-08T06:29:37.637Z,96972.95
2018-03-08T06:32:05.244Z,96981.46
2018-03-08T06:34:32.876Z,96977.54
2018-03-08T06:37:00.524Z,96970.83
2018-03-08T06:39:28.113Z,96972.84
2018-03-08T06:41:55.731Z,96979.67
2018-03-08T06:44:23.327Z,96983.64
2018-03-08T06:46:51.203Z,96988.59
2018-03-08T06:49:18.840Z,96986.56
2018-03-08T06:51:46.437Z,96987.07
2018-03-08T06:54:14.093Z,96995.88
2018-03-08T06:56:41.679Z,96993.08
2018-03-08T06:59:09.312Z,97000.34
2018-03-08T07:01:36.900Z,97001.73
2018-03-08T07:04:04.558Z,97002.14
2018-03-08T07:06:32.165Z,97011.21
2018-03-08T07:08:59.763Z,97007.49
2018-03-08T07:11:27.380Z,97016.27
2018-03-08T07:13:54.980Z,97015.84
2018-03-08T07:16:22.583Z,97016.17
2018-03-08T07:18:50.228Z,97011.39
2018-03-08T07:21:17.863Z,97009.19
2018-03-08T07:23:45.448Z,97002.69
2018-03-08T07:26:13.049Z,97009.67
2018-03-08T07:28:40.715Z,97018.02
2018-03-08T07:31:08.276Z,97019.06
2018-03-08T07:33:35.893Z,97025.34
2018-03-08T07:36:03.480Z,97021.98
2018-03-08T07:38:31.284Z,97025.93
2018-03-08T07:40:58.884Z,97027.96
2018-03-08T07:43:26.472Z,97026.83
2018-03-08T07:45:54.092Z,97032.03
2018-03-08T07:48:21.691Z,97038.83
2018-03-08T07:50:49.308Z,97032.35
2018-03-08T07:53:16.888Z,97038.38
2018-03-08T07:55:44.899Z,97034.66
2018-03-08T07:58:12.561Z,97035.33
2018-03-08T08:00:40.219Z,97025.76
2018-03-08T08:03:07.825Z,97034.83
2018-03-08T08:05:47.028Z,97036.97
2018-03-08T08:08:26.255Z,97039.03
2018-03-08T08:10:53.844Z,97038.22
2018-03-08T08:13:21.476Z,97036.89
2018-03-08T08:15:49.717Z,97030.51
2018-03-08T08:18:17.332Z,97035.30
2018-03-08T08:20:44.916Z,97036.23
2018-03-08T08:23:12.570Z,97031.14
2018-03-08T08:25:40.160Z,97030.39
2018-03-08T08:28:07.852Z,97031.77
2018-03-08T08:30:35.826Z,97036.72
2018-03-08T08:33:03.441Z,97038.66
2018-03-08T08:35:31.146Z,97030.14
2018-03-08T08:37:58.741Z,97033.75
2018-03-08T08:40:26.718Z,97039.97
2018-03-08T08:42:54.314Z,97041.31
2018-03-08T08:45:21.899Z,97038.18
2018-03-08T08:47:49.513Z,97030.01
2018-03-08T08:50:17.104Z,97042.20
2018-03-08T08:52:44.783Z,97045.78
2018-03-08T08:55:13.254Z,97047.55
2018-03-08T08:57:41.089Z,97048.03
2018-03-08T09:00:09.680Z,97051.52
2018-03-08T09:02:37.313Z,97045.95
2018-03-08T09:05:04.946Z,97050.17
2018-03-08T09:07:32.579Z,97044.19
2018-03-08T09:10:00.183Z,97042.14
2018-03-08T09:12:27.768Z,97042.57
2018-03-08T09:14:55.358Z,97041.59
2018-03-08T09:17:22.991Z,97040.81
2018-03-08T09:19:50.590Z,97039.53
2018-03-08T09:22:18.464Z,97043.00
2018-03-08T09:24:46.052Z,97031.17
2018-03-08T09:27:13.633Z,97033.25
2018-03-08T09:29:41.252Z,97037.97
2018-03-08T09:32:08.845Z,97037.45
2018-03-08T09:34:36.477Z,97043.19
2018-03-08T09:37:04.146Z,97036.64
2018-03-08T09:39:33.052Z,97039.42
2018-03-08T09:42:00.936Z,97040.25
2018-03-08T09:44:28.543Z,97044.30
2018-03-08T09:46:56.160Z,97037.18
2018-03-08T09:49:23.797Z,97033.20
2018-03-08T09:51:51.768Z,97035.16
2018-03-08T09:54:19.735Z,97035.26
2018-03-08T09:56:47.708Z,97027.06
2018-03-08T09:59:15.308Z,97032.77
2018-03-08T10:01:42.895Z,97026.70
2018-03-08T10:04:10.517Z,97028.88
2018-03-08T10:06:38.217Z,97024.83
2018-03-08T10:09:05.835Z,97022.32
2018-03-08T10:11:33.436Z,97023.70
2018-03-08T10:14:01.183Z,97025.23
2018-03-08T10:16:28.768Z,97021.11
2018-03-08T10:18:56.375Z,97025.59
2018-03-08T10:21:44.339Z,97029.98
2018-03-08T10:23:51.825Z,97029.81
2018-03-08T10:26:19.859Z,97029.74
2018-03-08T10:28:47.441Z,97021.25
2018-03-08T10:31:15.353Z,97019.94
2018-03-08T10:33:42.943Z,97017.55
2018-03-08T10:36:10.534Z,97014.66
2018-03-08T10:38:38.139Z,97022.17
2018-03-08T10:41:05.779Z,97028.67
2018-03-08T10:43:33.372Z,97025.44
2018-03-08T10:46:00.959Z,97021.44
2018-03-08T10:48:28.591Z,97012.83
2018-03-08T10:50:56.426Z,97010.65
2018-03-08T10:53:24.277Z,97014.41
2018-03-08T10:55:52.316Z,97018.55
2018-03-08T10:58:19.912Z,97012.94
2018-03-08T11:01:02.067Z,97007.68
2018-03-08T11:03:48.120Z,97014.28
2018-03-08T11:06:20.565Z,97012.23
2018-03-08T11:08:48.143Z,97012.38
2018-03-08T11:11:15.981Z,97006.91
2018-03-08T11:13:43.576Z,96998.36
2018-03-08T11:16:11.161Z,97002.52
2018-03-08T11:18:38.802Z,97001.78
2018-03-08T11:21:06.390Z,96995.61
2018-03-08T11:23:34.394Z,96996.73
2018-03-08T11:26:02.260Z,96988.73
2018-03-08T11:28:29.993Z,96990.10
2018-03-08T11:30:57.596Z,96979.98
2018-03-08T11:33:25.194Z,96978.91
2018-03-08T11:35:52.807Z,96974.37
2018-03-08T11:38:20.403Z,96982.55
2018-03-08T11:40:48.112Z,96980.56
2018-03-08T11:43:15.705Z,96974.79
2018-03-08T11:45:43.340Z,96983.88
2018-03-08T11:48:11.089Z,96982.53
2018-03-08T11:50:38.698Z,96971.54
2018-03-08T11:53:06.743Z,96974.38
2018-03-08T11:55:34.715Z,96962.42
2018-03-08T11:58:02.376Z,96963.92
2018-03-08T12:00:30.003Z,96954.08
2018-03-08T12:02:58.090Z,96954.41
2018-03-08T12:05:27.765Z,96944.77
2018-03-08T12:07:55.700Z,96944.20
2018-03-08T12:10:23.378Z,96940.38
2018-03-08T12:12:50.962Z,96937.15
2018-03-08T12:15:18.580Z,96930.20
2018-03-08T12:17:46.174Z,96924.77
2018-03-08T12:20:14.077Z,96927.59
2018-03-08T12:22:42.041Z,96928.55
2018-03-08T12:25:09.865Z,96921.80
2018-03-08T12:27:37.479Z,96915.38
2018-03-08T12:30:05.320Z,96905.98
2018-03-08T12:32:32.931Z,96907.45
2018-03-08T12:35:00.610Z,96912.50
2018-03-08T12:37:28.651Z,96902.53
2018-03-08T12:42:58.577Z,96893.98
2018-03-08T12:45:26.906Z,96909.92
2018-03-08T12:47:54.718Z,96897.42
2018-03-08T12:50:22.324Z,96896.91
2018-03-08T12:52:50.080Z,96896.75
2018-03-08T12:55:17.900Z,96898.77
2018-03-08T12:57:45.507Z,96892.03
2018-03-08T13:00:13.202Z,96890.38
2018-03-08T13:02:40.855Z,96891.44
2018-03-08T13:05:08.563Z,96897.41
2018-03-08T13:07:36.179Z,96879.71
2018-03-08T13:10:03.792Z,96874.32
2018-03-08T13:12:31.563Z,96872.05
2018-03-08T13:15:00.560Z,96869.61
2018-03-08T13:17:28.544Z,96863.18
2018-03-08T13:19:56.136Z,96859.34
2018-03-08T13:22:24.170Z,96860.70
2018-03-08T13:24:51.947Z,96859.11
2018-03-08T13:27:19.535Z,96862.13
2018-03-08T13:29:47.177Z,96847.95
2018-03-08T13:32:14.768Z,96853.47
2018-03-08T13:34:42.381Z,96852.27
2018-03-08T13:37:09.977Z,96847.45
2018-03-08T13:39:38.193Z,96842.48
2018-03-08T13:42:05.791Z,96841.44
2018-03-08T13:44:33.935Z,96843.94
2018-03-08T13:47:01.551Z,96844.47
2018-03-08T13:49:36.911Z,96842.45
2018-03-08T13:52:04.827Z,96832.77
2018-03-08T13:54:32.607Z,96841.23
2018-03-08T13:57:00.432Z,96839.72
2018-03-08T13:59:28.025Z,96832.30
2018-03-08T14:01:55.635Z,96834.39
2018-03-08T14:04:33.369Z,96829.31
2018-03-08T14:07:01.226Z,96822.09
2018-03-08T14:09:28.845Z,96822.17
2018-03-08T14:11:56.421Z,96824.14
2018-03-08T14:14:24.288Z,96818.69
2018-03-08T14:16:51.879Z,96817.77
2018-03-08T14:19:19.464Z,96816.80
2018-03-08T14:21:47.239Z,96813.97
2018-03-08T14:24:15.281Z,96813.66
2018-03-08T14:26:43.149Z,96812.48
2018-03-08T14:29:10.901Z,96806.12
2018-03-08T14:31:38.998Z,96803.19
2018-03-08T14:34:06.610Z,96798.98
2018-03-08T14:36:34.199Z,96793.55
2018-03-08T14:39:01.814Z,96788.51
2018-03-08T14:41:33.499Z,96790.18
2018-03-08T14:44:01.109Z,96796.35
2018-03-08T14:46:28.688Z,96792.84
2018-03-08T14:48:56.330Z,96787.92
2018-03-08T14:51:23.916Z,96782.03
2018-03-08T14:53:51.843Z,96780.40
2018-03-08T14:56:19.912Z,96771.86
2018-03-08T14:58:47.524Z,96764.77
2018-03-08T15:01:15.225Z,96764.48
2018-03-08T15:03:42.825Z,96761.97
2018-03-08T15:06:10.852Z,96765.22
2018-03-08T15:08:38.463Z,96767.86
2018-03-08T15:11:06.075Z,96765.19
2018-03-08T15:13:33.743Z,96761.12
2018-03-08T15:16:01.424Z,96762.37
2018-03-08T15:18:29.046Z,96756.09
2018-03-08T15:20:56.673Z,96748.83
2018-03-08T15:23:24.582Z,96756.48
2018-03-08T15:25:52.373Z,96760.76
2018-03-08T15:28:19.982Z,96760.39
2018-03-08T15:30:47.597Z,96757.30
2018-03-08T15:33:15.193Z,96745.16
2018-03-08T15:35:42.815Z,96747.06
2018-03-08T15:38:10.421Z,96749.83
2018-03-08T15:40:38.543Z,96749.36
2018-03-08T15:43:06.154Z,96751.12
2018-03-08T15:45:33.757Z,96747.53
2018-03-08T15:48:01.361Z,96747.84
2018-03-08T15:50:28.959Z,96743.66
2018-03-08T15:52:57.176Z,96741.40
2018-03-08T15:55:25.146Z,96737.09
2018-03-08T15:57:53.100Z,96734.75
2018-03-08T16:00:21.066Z,96729.53
2018-03-08T16:02:48.687Z,96735.77
2018-03-08T16:05:16.365Z,96734.81
2018-03-08T16:07:51.125Z,96732.66
2018-03-08T16:13:18.629Z,96723.52
2018-03-08T16:15:46.416Z,96720.45
2018-03-08T16:18:14.123Z,96714.97
2018-03-08T16:20:42.093Z,96714.72
2018-03-08T16:23:10.072Z,96710.36
2018-03-08T16:25:37.836Z,96706.45
2018-03-08T16:28:05.716Z,96708.00
2018-03-08T16:30:33.306Z,96709.77
2018-03-08T16:33:00.924Z,96708.00
2018-03-08T16:35:28.511Z,96708.87
2018-03-08T16:37:56.345Z,96707.41
2018-03-08T16:40:24.207Z,96707.59
2018-03-08T16:42:51.802Z,96707.48
2018-03-08T16:45:19.412Z,96698.23
2018-03-08T16:47:47.010Z,96696.62
2018-03-08T16:50:14.623Z,96691.24
2018-03-08T16:52:42.451Z,96692.26
2018-03-08T16:55:10.521Z,96687.26
2018-03-08T16:57:38.115Z,96689.95
2018-03-08T17:00:05.707Z,96692.39
2018-03-08T17:02:33.316Z,96688.31
2018-03-08T17:05:00.917Z,96697.74
2018-03-08T17:07:28.533Z,96700.89
2018-03-08T17:09:56.149Z,96695.50
2018-03-08T17:12:23.924Z,96701.30
2018-03-08T17:14:51.510Z,96704.83
2018-03-08T17:17:19.104Z,96705.41
2018-03-08T17:19:46.728Z,96708.71
2018-03-08T17:22:14.316Z,96712.02
2018-03-08T17:24:41.942Z,96717.39
2018-03-08T17:27:09.555Z,96710.33
2018-03-08T17:29:37.177Z,96716.45
2018-03-08T17:32:04.771Z,96719.17
2018-03-08T17:34:32.360Z,96714.41
2018-03-08T17:36:59.972Z,96709.98
2018-03-08T17:39:27.573Z,96712.28
2018-03-08T17:41:55.193Z,96716.16
2018-03-08T17:44:22.782Z,96723.31
2018-03-08T17:46:50.690Z,96720.16
2018-03-08T17:49:18.300Z,96728.30
2018-03-08T17:51:45.884Z,96731.85
2018-03-08T17:54:13.491Z,96736.84
2018-03-08T17:56:41.074Z,96743.53
2018-03-08T17:59:08.703Z,96744.97
2018-03-08T18:01:36.305Z,96742.62
2018-03-08T18:04:04.112Z,96749.02
2018-03-08T18:06:31.702Z,96743.86
2018-03-08T18:08:59.289Z,96748.50
2018-03-08T18:11:26.908Z,96737.55
2018-03-08T18:13:54.508Z,96737.25
2018-03-08T18:16:22.133Z,96737.62
2018-03-08T18:18:49.719Z,96735.27
2018-03-08T18:21:17.554Z,96739.48
2018-03-08T18:23:45.150Z,96730.77
2018-03-08T18:26:12.732Z,96733.17
2018-03-08T18:28:40.346Z,96733.55
2018-03-08T18:31:07.936Z,96732.63
2018-03-08T18:33:35.544Z,96736.73
2018-03-08T18:36:03.132Z,96728.83
2018-03-08T18:38:30.755Z,96729.14
2018-03-08T18:40:58.348Z,96733.59
2018-03-08T18:43:25.937Z,96736.11
2018-03-08T18:45:53.547Z,96727.97
2018-03-08T18:48:21.134Z,96728.90
2018-03-08T18:50:48.748Z,96729.70
2018-03-08T18:53:16.338Z,96730.96
2018-03-08T18:55:43.959Z,96728.59
2018-03-08T18:58:23.240Z,96735.23
2018-03-08T19:00:50.873Z,96729.13
2018-03-08T19:03:18.553Z,96730.33
2018-03-08T19:05:46.116Z,96737.56
2018-03-08T19:08:13.720Z,96739.70
2018-03-08T19:10:41.314Z,96730.62
2018-03-08T19:13:08.966Z,96729.55
2018-03-08T19:15:36.605Z,96736.76
2018-03-08T19:18:04.212Z,96735.16
2018-03-08T19:20:31.836Z,96731.38
2018-03-08T19:22:59.458Z,96735.52
2018-03-08T19:25:28.947Z,96739.22
2018-03-08T19:27:56.720Z,96737.02
2018-03-08T19:30:24.318Z,96745.20
2018-03-08T19:32:51.910Z,96747.36
2018-03-08T19:35:19.525Z,96747.70
2018-03-08T19:37:47.130Z,96751.23
2018-03-08T19:40:14.738Z,96750.91
2018-03-08T19:42:42.348Z,96748.55
2018-03-08T19:45:09.973Z,96749.45
2018-03-08T19:47:37.564Z,96745.74
2018-03-08T19:50:05.452Z,96754.55
2018-03-08T19:52:33.048Z,96756.37
2018-03-08T19:55:00.632Z,96754.67
2018-03-08T19:57:28.263Z,96768.38
2018-03-08T19:59:55.861Z,96766.11
2018-03-08T20:02:23.470Z,96761.61
2018-03-08T20:04:51.058Z,96770.18
2018-03-08T20:07:19.021Z,96761.15
2018-03-08T20:09:46.619Z,96768.14
2018-03-08T20:12:14.215Z,96766.63
2018-03-08T20:14:41.837Z,96768.61
2018-03-08T20:17:09.516Z,96765.92
2018-03-08T20:19:37.130Z,96768.25
2018-03-08T20:22:04.722Z,96771.33
2018-03-08T20:24:32.532Z,96765.84
2018-03-08T20:27:00.127Z,96766.12
2018-03-08T20:29:27.710Z,96770.81
2018-03-08T20:31:55.313Z,96769.95
2018-03-08T20:34:22.906Z,96771.79
2018-03-08T20:36:50.520Z,96779.67
2018-03-08T20:39:18.110Z,96780.08
2018-03-08T20:41:45.715Z,96782.91
2018-03-08T20:44:13.305Z,96784.61
2018-03-08T20:46:40.917Z,96787.85
2018-03-08T20:49:08.611Z,96795.20
2018-03-08T20:51:36.448Z,96793.73
2018-03-08T20:54:04.032Z,96790.19
2018-03-08T20:56:31.624Z,96783.95
2018-03-08T20:58:59.237Z,96782.73
2018-03-08T21:01:26.827Z,96795.50
2018-03-08T21:03:54.436Z,96785.09
2018-03-08T21:06:22.029Z,96782.32
2018-03-08T21:08:49.654Z,96780.25
2018-03-08T21:11:17.240Z,96790.70
2018-03-08T21:13:44.827Z,96792.39
2018-03-08T21:16:12.457Z,96799.84
2018-03-08T21:18:40.047Z,96791.64
2018-03-08T21:21:07.648Z,96799.08
2018-03-08T21:23:35.235Z,96795.88
2018-03-08T21:26:02.968Z,96797.50
2018-03-08T21:28:30.569Z,96801.16
2018-03-08T21:30:58.157Z,96799.31
2018-03-08T21:33:25.770Z,96801.28
2018-03-08T21:35:53.360Z,96802.28
2018-03-08T21:38:20.995Z,96809.81
2018-03-08T21:40:48.576Z,96811.42
2018-03-08T21:43:16.414Z,96805.63
2018-03-08T21:45:43.992Z,96813.01
2018-03-08T21:48:11.581Z,96811.36
2018-03-08T21:50:39.303Z,96819.09
2018-03-08T21:53:06.902Z,96816.44
2018-03-08T21:55:34.540Z,96825.21
2018-03-08T21:58:02.137Z,96826.08
2018-03-08T22:00:30.148Z,96823.20
2018-03-08T22:02:57.740Z,96825.17
2018-03-08T22:05:25.324Z,96841.78
2018-03-08T22:07:52.932Z,96862.24
2018-03-08T22:10:20.511Z,96890.86
2018-03-08T22:12:48.118Z,96917.88
2018-03-08T22:15:15.717Z,96926.27
2018-03-08T22:17:43.372Z,96938.23
2018-03-08T22:20:10.963Z,96939.96
2018-03-08T22:22:38.599Z,96962.11
2018-03-08T22:25:06.221Z,96947.47
2018-03-08T22:27:33.831Z,96971.56
2018-03-08T22:30:01.441Z,96973.84
2018-03-08T22:32:29.042Z,96976.86
2018-03-08T22:34:56.819Z,96982.15
2018-03-08T22:37:24.412Z,97004.80
2018-03-08T22:39:52.004Z,97005.98
2018-03-08T22:42:19.625Z,97034.92
2018-03-08T22:44:47.209Z,97024.17
2018-03-08T22:47:14.827Z,97044.47
2018-03-08T22:49:42.416Z,97035.14
2018-03-08T22:52:10.054Z,97074.77
2018-03-08T22:54:37.670Z,97056.97
2018-03-08T22:57:05.337Z,97067.03
2018-03-08T22:59:32.956Z,97072.03
2018-03-08T23:02:09.040Z,97072.66
2018-03-08T23:04:36.640Z,97083.98
2018-03-08T23:07:04.232Z,97083.57
2018-03-08T23:09:31.874Z,97076.05
2018-03-08T23:11:59.455Z,97069.90
2018-03-08T23:14:27.042Z,97080.89
2018-03-08T23:16:54.647Z,97091.30
2018-03-08T23:19:22.228Z,97088.69
2018-03-08T23:21:49.961Z,97086.12
2018-03-08T23:24:17.552Z,97100.52
2018-03-08T23:26:45.235Z,97109.00
2018-03-08T23:29:12.926Z,97108.60
2018-03-08T23:31:40.895Z,97118.02
2018-03-08T23:34:08.520Z,97124.09
2018-03-08T23:36:36.118Z,97128.39
2018-03-08T23:39:04.129Z,97119.78
2018-03-08T23:41:31.749Z,97142.56
2018-03-08T23:43:59.343Z,97147.92
2018-03-08T23:46:26.949Z,97146.33
2018-03-08T23:48:54.537Z,97163.59
2018-03-08T23:51:22.167Z,97167.24
2018-03-08T23:53:49.851Z,97161.67
2018-03-08T23:56:17.548Z,97156.43
2018-03-08T23:58:45.217Z,97158.43
